createdAt,value
2023-03-22T00:05:31.121Z,4.30
2023-03-22T00:07:59.755Z,4.00
2023-03-22T00:10:31.945Z,4.40
2023-03-22T00:12:59.705Z,4.53
2023-03-22T00:15:29.790Z,4.30
2023-03-22T00:17:59.199Z,5.00
2023-03-22T00:20:30.697Z,5.10
2023-03-22T00:22:58.873Z,4.85
2023-03-22T00:25:28.904Z,6.45
2023-03-22T00:27:56.634Z,8.38
2023-03-22T00:30:24.185Z,8.88
2023-03-22T00:32:53.536Z,8.98
2023-03-22T00:35:30.569Z,8.32
2023-03-22T00:38:06.206Z,8.40
2023-03-22T00:40:38.238Z,7.50
2023-03-22T00:43:06.082Z,7.13
2023-03-22T00:45:41.363Z,6.97
2023-03-22T00:48:12.226Z,6.55
2023-03-22T00:50:41.214Z,6.55
2023-03-22T00:53:09.439Z,5.85
2023-03-22T00:55:38.823Z,6.05
2023-03-22T00:58:06.429Z,5.85
2023-03-22T01:00:34.599Z,5.88
2023-03-22T01:03:09.884Z,6.82
2023-03-22T01:05:39.599Z,6.68
2023-03-22T01:08:12.985Z,5.85
2023-03-22T01:10:41.603Z,6.43
2023-03-22T01:13:10.289Z,5.80
2023-03-22T01:15:38.360Z,6.93
2023-03-22T01:18:11.118Z,6.32
2023-03-22T01:20:39.624Z,6.68
2023-03-22T01:23:07.655Z,7.00
2023-03-22T01:25:35.791Z,6.90
2023-03-22T01:28:03.440Z,7.05
2023-03-22T01:30:35.686Z,7.90
2023-03-22T01:33:03.658Z,7.65
2023-03-22T01:35:33.410Z,7.13
2023-03-22T01:38:07.068Z,7.90
2023-03-22T01:40:39.558Z,7.70
2023-03-22T01:43:14.325Z,7.78
2023-03-22T01:45:54.680Z,8.38
2023-03-22T01:48:46.418Z,7.80
2023-03-22T01:51:24.914Z,7.93
2023-03-22T01:54:17.888Z,8.80
2023-03-22T01:56:46.063Z,8.65
2023-03-22T01:59:22.536Z,8.93
2023-03-22T02:02:06.410Z,9.88
2023-03-22T02:04:36.894Z,8.98
2023-03-22T02:07:15.847Z,9.77
2023-03-22T02:09:53.237Z,9.95
2023-03-22T02:12:44.190Z,9.90
2023-03-22T02:16:04.321Z,10.65
2023-03-22T02:18:53.135Z,9.45
2023-03-22T02:21:39.548Z,11.15
2023-03-22T02:24:26.085Z,10.95
2023-03-22T02:26:59.627Z,11.23
2023-03-22T02:29:34.522Z,11.52
2023-03-22T02:32:03.947Z,11.20
2023-03-22T02:34:31.610Z,12.20
2023-03-22T02:37:19.726Z,12.32
2023-03-22T02:39:47.388Z,13.18
2023-03-22T02:42:15.212Z,13.10
2023-03-22T02:44:46.130Z,13.00
2023-03-22T02:47:23.423Z,12.93
2023-03-22T02:50:11.515Z,13.40
2023-03-22T02:52:45.767Z,13.75
2023-03-22T02:55:18.140Z,13.95
2023-03-22T02:58:06.863Z,13.85
2023-03-22T03:00:39.013Z,13.30
2023-03-22T03:03:11.508Z,14.35
2023-03-22T03:05:44.700Z,12.90
2023-03-22T03:08:16.507Z,12.48
2023-03-22T03:10:44.984Z,12.93
2023-03-22T03:13:14.190Z,12.25
2023-03-22T03:15:44.030Z,12.10
2023-03-22T03:18:24.185Z,11.85
2023-03-22T03:21:03.980Z,11.70
2023-03-22T03:23:43.747Z,11.70
2023-03-22T03:26:29.636Z,11.20
2023-03-22T03:28:57.519Z,11.48
2023-03-22T03:31:32.656Z,11.35
2023-03-22T03:34:01.884Z,10.10
2023-03-22T03:36:31.751Z,9.60
2023-03-22T03:38:59.765Z,10.40
2023-03-22T03:41:29.475Z,9.60
2023-03-22T03:43:58.571Z,9.60
2023-03-22T03:46:31.455Z,8.77
2023-03-22T03:49:00.008Z,9.18
2023-03-22T03:51:28.419Z,8.35
2023-03-22T03:53:56.443Z,8.70
2023-03-22T03:56:25.488Z,8.40
2023-03-22T03:58:53.799Z,7.80
2023-03-22T04:01:24.273Z,7.53
2023-03-22T04:04:27.458Z,7.63
2023-03-22T04:07:04.875Z,7.70
2023-03-22T04:09:35.601Z,7.55
2023-03-22T04:12:32.454Z,7.40
2023-03-22T04:15:22.766Z,7.07
2023-03-22T04:17:55.558Z,7.25
2023-03-22T04:20:27.261Z,6.43
2023-03-22T04:22:55.047Z,6.50
2023-03-22T04:25:24.145Z,7.20
2023-03-22T04:28:04.506Z,7.07
2023-03-22T04:30:39.125Z,5.82
2023-03-22T04:33:17.185Z,6.32
2023-03-22T04:36:10.442Z,6.40
2023-03-22T04:38:52.847Z,6.50
2023-03-22T04:41:24.136Z,5.78
2023-03-22T04:43:54.824Z,6.55
2023-03-22T04:46:24.583Z,5.82
2023-03-22T04:49:02.946Z,6.22
2023-03-22T04:51:34.968Z,5.85
2023-03-22T04:54:23.900Z,6.22
2023-03-22T04:56:52.560Z,6.13
2023-03-22T04:59:25.914Z,5.82
2023-03-22T05:01:54.482Z,5.63
2023-03-22T05:04:27.345Z,5.63
2023-03-22T05:07:02.193Z,5.22
2023-03-22T05:09:43.721Z,5.80
2023-03-22T05:12:12.433Z,4.93
2023-03-22T05:14:48.066Z,5.53
2023-03-22T05:17:19.412Z,5.18
2023-03-22T05:19:47.792Z,5.63
2023-03-22T05:22:15.758Z,5.75
2023-03-22T05:24:49.569Z,4.68
2023-03-22T05:27:31.506Z,4.60
2023-03-22T05:30:12.146Z,5.10
2023-03-22T05:32:49.724Z,4.90
2023-03-22T05:35:19.836Z,4.93
2023-03-22T05:37:53.586Z,4.43
2023-03-22T05:40:23.202Z,5.57
2023-03-22T05:42:55.373Z,4.13
2023-03-22T05:45:27.204Z,4.13
2023-03-22T05:48:06.950Z,4.68
2023-03-22T05:50:35.750Z,4.57
2023-03-22T05:53:04.210Z,4.38
2023-03-22T05:55:45.121Z,4.38
2023-03-22T05:58:19.397Z,4.43
2023-03-22T06:00:52.779Z,4.55
2023-03-22T06:03:53.536Z,4.07
2023-03-22T06:06:33.624Z,4.47
2023-03-22T06:09:16.938Z,3.88
2023-03-22T06:11:52.457Z,3.60
2023-03-22T06:14:23.716Z,4.28
2023-03-22T06:17:02.295Z,4.05
2023-03-22T06:19:31.303Z,4.18
2023-03-22T06:22:02.825Z,3.63
2023-03-22T06:24:32.595Z,3.97
2023-03-22T06:27:00.664Z,3.70
2023-03-22T06:29:29.411Z,3.53
2023-03-22T06:32:01.943Z,3.65
2023-03-22T06:34:31.302Z,3.70
2023-03-22T06:36:59.266Z,3.53
2023-03-22T06:39:40.156Z,3.65
2023-03-22T06:42:19.830Z,3.50
2023-03-22T06:44:58.490Z,3.83
2023-03-22T06:47:29.651Z,3.40
2023-03-22T06:50:18.004Z,3.35
2023-03-22T06:53:09.283Z,3.50
2023-03-22T06:55:41.699Z,3.70
2023-03-22T06:58:19.613Z,4.00
2023-03-22T07:00:47.405Z,3.42
2023-03-22T07:03:18.834Z,3.92
2023-03-22T07:05:52.140Z,3.90
2023-03-22T07:08:45.883Z,3.92
2023-03-22T07:11:17.731Z,5.07
2023-03-22T07:14:04.640Z,3.65
2023-03-22T07:20:53.809Z,4.13
2023-03-22T07:23:25.166Z,3.63
2023-03-22T07:25:56.230Z,4.25
2023-03-22T07:28:29.710Z,4.20
2023-03-22T07:31:13.138Z,4.05
2023-03-22T07:34:05.324Z,4.47
2023-03-22T07:37:03.138Z,4.10
2023-03-22T07:39:31.903Z,4.00
2023-03-22T07:42:00.199Z,4.63
2023-03-22T07:44:49.962Z,4.60
2023-03-22T07:47:41.617Z,3.80
2023-03-22T07:50:18.926Z,4.85
2023-03-22T07:52:51.249Z,4.18
2023-03-22T07:55:19.629Z,4.50
2023-03-22T07:57:47.656Z,4.45
2023-03-22T08:00:15.770Z,4.07
2023-03-22T08:02:46.055Z,4.22
2023-03-22T08:05:32.463Z,4.72
2023-03-22T08:08:03.201Z,4.38
2023-03-22T08:10:33.076Z,4.82
2023-03-22T08:13:01.672Z,4.53
2023-03-22T08:15:29.475Z,4.30
2023-03-22T08:17:58.236Z,5.25
2023-03-22T08:20:34.384Z,4.28
2023-03-22T08:23:11.375Z,4.72
2023-03-22T08:25:48.802Z,5.13
2023-03-22T08:28:16.871Z,4.95
2023-03-22T08:30:45.866Z,5.03
2023-03-22T08:33:14.316Z,5.40
2023-03-22T08:35:45.294Z,4.50
2023-03-22T08:38:13.633Z,4.20
2023-03-22T08:40:48.665Z,4.32
2023-03-22T08:43:20.328Z,3.83
2023-03-22T08:45:48.921Z,3.70
2023-03-22T08:48:21.363Z,4.00
2023-03-22T08:51:23.034Z,3.10
2023-03-22T08:54:04.872Z,3.40
2023-03-22T08:56:51.957Z,3.63
2023-03-22T08:59:38.539Z,2.80
2023-03-22T09:02:27.041Z,3.03
2023-03-22T09:04:55.873Z,3.05
2023-03-22T09:07:24.431Z,2.60
2023-03-22T09:10:04.855Z,2.60
2023-03-22T09:12:34.574Z,3.20
2023-03-22T09:15:03.076Z,2.75
2023-03-22T09:17:31.901Z,2.58
2023-03-22T09:20:11.433Z,2.88
2023-03-22T09:22:41.040Z,2.90
2023-03-22T09:25:12.815Z,3.10
2023-03-22T09:27:44.321Z,2.78
2023-03-22T09:30:12.744Z,2.70
2023-03-22T09:32:40.921Z,2.33
2023-03-22T09:37:59.093Z,3.00
2023-03-22T09:40:29.368Z,2.28
2023-03-22T09:45:33.408Z,2.10
2023-03-22T09:48:01.685Z,2.55
2023-03-22T09:50:31.333Z,2.67
2023-03-22T09:52:59.706Z,2.10
2023-03-22T09:55:37.451Z,2.25
2023-03-22T09:58:17.816Z,2.67
2023-03-22T10:00:48.676Z,2.75
2023-03-22T10:03:27.736Z,2.28
2023-03-22T10:06:05.957Z,2.55
2023-03-22T10:08:52.869Z,2.58
2023-03-22T10:11:21.347Z,2.17
2023-03-22T10:14:09.695Z,1.95
2023-03-22T10:16:37.260Z,2.53
2023-03-22T10:19:29.849Z,1.83
2023-03-22T10:22:00.021Z,2.28
2023-03-22T10:24:30.952Z,2.20
2023-03-22T10:26:58.582Z,2.65
2023-03-22T10:29:44.532Z,2.30
2023-03-22T10:32:28.044Z,2.22
2023-03-22T10:34:55.825Z,1.90
2023-03-22T10:37:25.686Z,1.70
2023-03-22T10:39:57.700Z,2.35
2023-03-22T10:42:27.498Z,2.47
2023-03-22T10:44:57.133Z,2.72
2023-03-22T10:47:44.927Z,1.70
2023-03-22T10:50:23.038Z,2.33
2023-03-22T10:53:11.268Z,1.92
2023-03-22T10:55:43.027Z,2.20
2023-03-22T10:58:19.652Z,2.30
2023-03-22T11:00:49.379Z,2.33
2023-03-22T11:03:27.837Z,2.75
2023-03-22T11:05:59.978Z,2.28
2023-03-22T11:08:27.909Z,2.03
2023-03-22T11:11:09.515Z,2.80
2023-03-22T11:13:38.289Z,2.92
2023-03-22T11:16:06.608Z,2.83
2023-03-22T11:18:36.234Z,2.28
2023-03-22T11:21:10.717Z,2.03
2023-03-22T11:23:41.614Z,2.20
2023-03-22T11:26:13.781Z,2.50
2023-03-22T11:28:49.850Z,2.80
2023-03-22T11:31:24.783Z,2.22
2023-03-22T11:33:57.151Z,2.40
2023-03-22T11:36:25.462Z,2.17
2023-03-22T11:39:04.189Z,2.40
2023-03-22T11:41:33.095Z,2.70
2023-03-22T11:44:03.215Z,3.80
2023-03-22T11:46:31.754Z,2.97
2023-03-22T11:49:01.955Z,2.45
2023-03-22T11:51:32.756Z,2.30
2023-03-22T11:56:35.185Z,2.40
2023-03-22T11:59:10.085Z,2.10
2023-03-22T12:01:52.520Z,2.63
2023-03-22T12:04:23.121Z,2.78
2023-03-22T12:06:54.131Z,2.22
2023-03-22T12:09:48.113Z,2.50
2023-03-22T12:12:18.361Z,2.53
2023-03-22T12:15:04.353Z,2.80
2023-03-22T12:17:51.883Z,2.25
2023-03-22T12:20:23.302Z,2.25
2023-03-22T12:22:53.589Z,2.25
2023-03-22T12:25:26.108Z,2.40
2023-03-22T12:27:56.096Z,2.63
2023-03-22T12:30:25.214Z,2.95
2023-03-22T12:33:16.472Z,2.03
2023-03-22T12:35:45.759Z,1.98
2023-03-22T12:38:52.697Z,2.10
2023-03-22T12:41:27.853Z,1.83
2023-03-22T12:43:57.887Z,2.30
2023-03-22T12:46:41.306Z,1.98
2023-03-22T12:49:37.441Z,2.03
2023-03-22T12:52:13.016Z,2.03
2023-03-22T12:54:43.089Z,2.03
2023-03-22T12:57:11.532Z,1.73
2023-03-22T12:59:39.377Z,2.90
2023-03-22T13:02:28.287Z,2.30
2023-03-22T13:04:58.528Z,2.92
2023-03-22T13:07:32.055Z,1.83
2023-03-22T13:10:02.379Z,2.08
2023-03-22T13:14:59.712Z,2.85
2023-03-22T13:17:27.587Z,2.00
2023-03-22T13:20:08.060Z,2.40
2023-03-22T13:25:08.877Z,1.95
2023-03-22T13:27:38.544Z,2.53
2023-03-22T13:30:10.765Z,2.15
2023-03-22T13:32:39.718Z,2.00
2023-03-22T13:35:22.703Z,3.00
2023-03-22T13:37:55.160Z,2.13
2023-03-22T13:40:36.582Z,2.00
2023-03-22T13:43:16.502Z,2.10
2023-03-22T13:46:26.298Z,2.65
2023-03-22T13:48:56.436Z,3.10
2023-03-22T13:51:29.409Z,2.45
2023-03-22T13:54:18.225Z,2.30
2023-03-22T13:56:53.550Z,2.20
2023-03-22T13:59:24.908Z,1.70
2023-03-22T14:02:13.275Z,2.22
2023-03-22T14:04:57.009Z,2.35
2023-03-22T14:07:38.538Z,2.10
2023-03-22T14:10:14.118Z,2.25
2023-03-22T14:12:57.109Z,1.95
2023-03-22T14:15:27.200Z,2.20
2023-03-22T14:18:09.067Z,2.60
2023-03-22T14:20:38.179Z,2.30
